Terminal Aerodrome Forecast
Issued by NWS Sterling, VA

Home | Current Version | Previous Version | Text Only | Print | Product List | Glossary On
Versions: 1 2 3 4 5 6 7 8 9 10 11 12
000
FTUS41 KLWX 290500
TAFCHO
TAF
KCHO 290523Z 2906/3006 04003KT P6SM FEW130
     FM291600 08006KT P6SM SCT250
     FM292100 14007KT P6SM FEW050 SCT250
     FM300000 00000KT P6SM SCT250
     FM300500 00000KT P6SM BKN050=

USA.gov is the U.S. government's official web portal to all federal, state and local government web resources and services.